Houghton County Memorial Airport
KCMX : now visible

Airfield :











YOU CAN JOIN US ON...

 
LOGIN :

Register | Disclaimer

   EN    FR    IT 

 









Legend :    VFR   Marginal VFR   IFR   Intensive IFR   Very Intensive IFR
Visi :
Ceiling :
>= 8 km
>= 3000ft
5 to 8 km
1000 to 3000 ft
1500m to 5 km
500 to 1000 ft
800 to 1500m
200 to 500 ft
< 800m
< 200 ft
Symbols :   Thunderstorms  Fog  Heavy snow  Heavy precipitations  Wind > 20 kt






- Airport Elevation : 1095 ft
- IATA code : CMX


KCMX - Houghton County Memorial

CURRENT METAR :
  • 220016Z AUTO 26011KT 10SM BKN027 OVC032 04/M02 A3011 RMK AO2 T00391017

EXPIRED METARs :
  • 212353Z AUTO 27012G22KT 10SM OVC030 04/M02 A3010 RMK AO2 SLP205 60000 T00391022 10044 20028 53025
  • 212335Z AUTO 27016G21KT 10SM BKN026 OVC035 04/M02 A3009 RMK AO2 T00391017
  • 212253Z AUTO 27014G23KT 10SM SCT033 BKN041 03/M02 A3007 RMK AO2 SLP194 T00331017
  • 212153Z AUTO 28016G25KT 10SM BKN037 04/M01 A3005 RMK AO2 PK WND 28028/2119 SLP187 T00391011
  • 212133Z AUTO 28015G26KT 10SM SCT023 BKN033 BKN040 04/M01 A3004 RMK AO2 PK WND 28028/2119 T00391011
  • 212124Z AUTO 28019G28KT 10SM BKN023 BKN029 OVC045 04/M01 A3004 RMK AO2 PK WND 28028/2119 T00391011

TAF KCMX
Valid from the 22 at 00:00 until the 23 at 00:00 UTC


212320Z 2200/2224 27012G23KT P6SM OVC035
FM220700 29007KT P6SM OVC035
FM221100 VRB03KT P6SM BKN050
FM221400 VRB04KT P6SM OVC030
FM221800 06006KT 6SM -RASN OVC018
FM222200 06009KT 4SM -RASN OVC009
KZMP FIR / North America



MET'MAP, your aeronautical weather chart ! - Copyright ORBIFLY December 2007 - Disclaimer

ORBIFLY MET'MAP TEAM :

Programming & Development : Alexandra Zaïnal
Concept & original design : Baudouin d'Aumeries
Assistance for programming : Marc-Olivier Méhu
Technical & hardware support : Manuel Goepfert

Contact : metmap@orbifly.com




SOURCES & CREDITS :

   NOAA       Earth
Advisory